createdAt,value
2023-04-04T00:02:00.662Z,96216.25
2023-04-04T00:04:28.072Z,96213.41
2023-04-04T00:06:55.187Z,96193.81
2023-04-04T00:09:22.328Z,96198.72
2023-04-04T00:11:49.511Z,96194.25
2023-04-04T00:14:17.943Z,96189.41
2023-04-04T00:16:45.089Z,96205.06
2023-04-04T00:19:17.899Z,96201.22
2023-04-04T00:21:47.872Z,96184.09
2023-04-04T00:24:14.859Z,96190.22
2023-04-04T00:26:42.212Z,96188.78
2023-04-04T00:29:09.325Z,96197.59
2023-04-04T00:31:36.628Z,96192.69
2023-04-04T00:34:03.722Z,96189.81
2023-04-04T00:36:30.781Z,96186.97
2023-04-04T00:38:57.826Z,96191.22
2023-04-04T00:41:25.382Z,96198.38
2023-04-04T00:43:52.823Z,96197.59
2023-04-04T00:46:20.766Z,96184.03
2023-04-04T00:48:48.077Z,96189.00
2023-04-04T00:51:15.138Z,96183.25
2023-04-04T00:53:44.649Z,96178.31
2023-04-04T00:56:12.207Z,96169.41
2023-04-04T00:58:39.975Z,96186.72
2023-04-04T01:01:07.925Z,96167.69
2023-04-04T01:03:35.434Z,96177.13
2023-04-04T01:06:02.771Z,96175.25
2023-04-04T01:08:30.400Z,96169.72
2023-04-04T01:10:57.533Z,96179.13
2023-04-04T01:13:25.862Z,96176.00
2023-04-04T01:15:53.085Z,96188.56
2023-04-04T01:18:21.460Z,96182.53
2023-04-04T01:20:54.249Z,96170.47
2023-04-04T01:23:23.262Z,96195.56
2023-04-04T01:25:50.276Z,96169.09
2023-04-04T01:28:17.424Z,96186.22
2023-04-04T01:30:45.579Z,96177.88
2023-04-04T01:33:16.573Z,96180.28
2023-04-04T01:35:47.429Z,96170.22
2023-04-04T01:38:18.850Z,96186.44
2023-04-04T01:40:49.012Z,96193.81
2023-04-04T01:43:17.074Z,96185.59
2023-04-04T01:45:46.221Z,96183.09
2023-04-04T01:48:16.635Z,96186.66
2023-04-04T01:50:46.992Z,96198.06
2023-04-04T01:53:14.151Z,96174.44
2023-04-04T01:55:41.163Z,96177.44
2023-04-04T01:58:08.430Z,96169.63
2023-04-04T02:00:35.665Z,96163.78
2023-04-04T02:03:04.017Z,96169.66
2023-04-04T02:05:31.422Z,96173.28
2023-04-04T02:07:58.558Z,96183.13
2023-04-04T02:10:35.436Z,96181.63
2023-04-04T02:13:04.649Z,96186.66
2023-04-04T02:15:31.688Z,96185.38
2023-04-04T02:18:00.581Z,96184.19
2023-04-04T02:20:29.003Z,96201.44
2023-04-04T02:22:57.094Z,96206.22
2023-04-04T02:25:25.076Z,96209.59
2023-04-04T02:27:52.318Z,96206.41
2023-04-04T02:30:19.558Z,96217.41
2023-04-04T02:32:47.507Z,96201.25
2023-04-04T02:35:17.963Z,96202.78
2023-04-04T02:37:46.662Z,96216.03
2023-04-04T02:40:20.934Z,96209.22
2023-04-04T02:42:48.158Z,96227.38
2023-04-04T02:45:15.648Z,96224.09
2023-04-04T02:47:50.638Z,96233.72
2023-04-04T02:50:19.096Z,96213.94
2023-04-04T02:52:54.904Z,96232.00
2023-04-04T02:55:21.982Z,96242.19
2023-04-04T02:57:52.554Z,96233.94
2023-04-04T03:00:20.198Z,96228.81
2023-04-04T03:02:53.447Z,96242.72
2023-04-04T03:05:21.318Z,96234.00
2023-04-04T03:07:48.328Z,96220.16
2023-04-04T03:10:15.828Z,96228.69
2023-04-04T03:12:42.922Z,96242.13
2023-04-04T03:15:10.249Z,96258.09
2023-04-04T03:17:38.755Z,96260.56
2023-04-04T03:20:06.768Z,96254.53
2023-04-04T03:22:34.107Z,96249.34
2023-04-04T03:25:03.581Z,96257.00
2023-04-04T03:27:34.029Z,96278.25
2023-04-04T03:30:01.582Z,96279.00
2023-04-04T03:32:32.538Z,96272.81
2023-04-04T03:34:59.652Z,96283.59
2023-04-04T03:37:26.794Z,96267.28
2023-04-04T03:39:53.854Z,96274.72
2023-04-04T03:42:21.881Z,96288.16
2023-04-04T03:44:49.068Z,96293.53
2023-04-04T03:47:25.967Z,96274.59
2023-04-04T03:49:53.037Z,96289.25
2023-04-04T03:52:20.071Z,96278.22
2023-04-04T03:54:47.199Z,96275.97
2023-04-04T03:57:14.283Z,96276.63
2023-04-04T03:59:43.223Z,96295.97
2023-04-04T04:02:10.456Z,96291.75
2023-04-04T04:04:37.601Z,96296.28
2023-04-04T04:07:04.699Z,96299.56
2023-04-04T04:09:31.863Z,96300.25
2023-04-04T04:11:58.910Z,96315.91
2023-04-04T04:14:26.171Z,96346.84
2023-04-04T04:16:53.500Z,96349.22
2023-04-04T04:19:22.584Z,96348.41
2023-04-04T04:21:49.758Z,96352.59
2023-04-04T04:24:17.471Z,96374.25
2023-04-04T04:26:44.533Z,96357.59
2023-04-04T04:29:16.252Z,96365.59
2023-04-04T04:31:43.481Z,96397.16
2023-04-04T04:34:11.070Z,96381.69
2023-04-04T04:36:40.223Z,96394.78
2023-04-04T04:39:23.404Z,96396.78
2023-04-04T04:42:10.998Z,96391.22
2023-04-04T04:44:46.034Z,96386.63
2023-04-04T04:47:13.213Z,96393.97
2023-04-04T04:49:40.287Z,96399.34
2023-04-04T04:52:10.290Z,96371.22
2023-04-04T04:54:43.698Z,96391.22
2023-04-04T04:57:11.208Z,96393.69
2023-04-04T04:59:41.782Z,96365.09
2023-04-04T05:02:10.930Z,96366.47
2023-04-04T05:04:45.261Z,96383.13
2023-04-04T05:07:14.258Z,96386.94
2023-04-04T05:09:44.272Z,96389.53
2023-04-04T05:12:12.749Z,96421.97
2023-04-04T05:14:43.483Z,96410.25
2023-04-04T05:17:10.857Z,96434.25
2023-04-04T05:19:38.012Z,96452.72
2023-04-04T05:22:07.312Z,96470.63
2023-04-04T05:24:43.144Z,96475.28
2023-04-04T05:27:13.787Z,96482.09
2023-04-04T05:29:47.524Z,96485.38
2023-04-04T05:32:15.925Z,96472.28
2023-04-04T05:34:49.320Z,96480.53
2023-04-04T05:37:18.906Z,96472.06
2023-04-04T05:39:49.052Z,96490.16
2023-04-04T05:42:16.967Z,96467.28
2023-04-04T05:44:49.097Z,96436.88
2023-04-04T05:47:16.508Z,96436.44
2023-04-04T05:49:46.836Z,96471.66
2023-04-04T05:52:13.907Z,96454.44
2023-04-04T05:54:41.066Z,96396.16
2023-04-04T05:57:14.139Z,96414.09
2023-04-04T05:59:48.902Z,96402.16
2023-04-04T06:02:17.453Z,96373.69
2023-04-04T06:04:50.354Z,96327.34
2023-04-04T06:07:25.246Z,96333.03
2023-04-04T06:09:52.299Z,96273.97
2023-04-04T06:12:20.539Z,96251.34
2023-04-04T06:14:47.859Z,96224.06
2023-04-04T06:17:19.625Z,96241.19
2023-04-04T06:19:46.699Z,96204.13
2023-04-04T06:22:13.794Z,96133.28
2023-04-04T06:24:46.619Z,96132.41
2023-04-04T06:27:13.874Z,96091.66
2023-04-04T06:29:41.454Z,96049.19
2023-04-04T06:32:09.610Z,96031.66
2023-04-04T06:34:40.055Z,96044.72
2023-04-04T06:37:08.157Z,95980.69
2023-04-04T06:39:41.666Z,95964.66
2023-04-04T06:42:16.163Z,95970.03
2023-04-04T06:44:48.230Z,95916.34
2023-04-04T06:47:15.286Z,95926.41
2023-04-04T06:49:42.459Z,95934.72
2023-04-04T06:52:09.548Z,95876.13
2023-04-04T06:54:36.644Z,95842.53
2023-04-04T06:57:03.689Z,95858.38
2023-04-04T06:59:30.769Z,95836.69
2023-04-04T07:01:58.021Z,95825.94
2023-04-04T07:04:26.030Z,95834.50
2023-04-04T07:06:53.059Z,95827.09
2023-04-04T07:09:28.846Z,95807.28
2023-04-04T07:11:56.870Z,95825.91
2023-04-04T07:14:25.408Z,95827.00
2023-04-04T07:16:53.448Z,95843.63
2023-04-04T07:19:20.761Z,95861.16
2023-04-04T07:21:47.787Z,95862.72
2023-04-04T07:24:14.805Z,95878.91
2023-04-04T07:26:41.886Z,95876.69
2023-04-04T07:29:09.552Z,95897.16
2023-04-04T07:31:36.739Z,95890.28
2023-04-04T07:34:04.144Z,95909.06
2023-04-04T07:36:31.514Z,95914.34
2023-04-04T07:38:58.586Z,95912.25
2023-04-04T07:41:28.434Z,95923.44
2023-04-04T07:43:55.476Z,95936.22
2023-04-04T07:46:22.580Z,95934.63
2023-04-04T07:48:50.559Z,95934.91
2023-04-04T07:51:18.051Z,95936.97
2023-04-04T07:53:45.107Z,95949.94
2023-04-04T07:56:12.145Z,95965.38
2023-04-04T07:58:39.184Z,95960.91
2023-04-04T08:01:06.364Z,95978.50
2023-04-04T08:03:33.592Z,95981.63
2023-04-04T08:06:00.982Z,95988.00
2023-04-04T08:08:28.124Z,96002.94
2023-04-04T08:10:55.475Z,96012.66
2023-04-04T08:13:22.527Z,96029.69
2023-04-04T08:15:49.730Z,96038.34
2023-04-04T08:18:16.878Z,96038.34
2023-04-04T08:20:44.074Z,96051.34
2023-04-04T08:23:12.888Z,96055.88
2023-04-04T08:25:40.176Z,96063.13
2023-04-04T08:28:07.277Z,96058.28
2023-04-04T08:30:34.375Z,96060.66
2023-04-04T08:33:02.384Z,96069.28
2023-04-04T08:35:31.129Z,96063.69
2023-04-04T08:37:58.175Z,96066.28
2023-04-04T08:40:25.478Z,96065.69
2023-04-04T08:42:53.068Z,96071.53
2023-04-04T08:45:21.647Z,96067.66
2023-04-04T08:47:50.534Z,96080.34
2023-04-04T08:50:19.227Z,96070.66
2023-04-04T08:52:46.570Z,96081.84
2023-04-04T08:55:14.098Z,96083.09
2023-04-04T08:57:42.238Z,96086.84
2023-04-04T09:00:09.890Z,96090.88
2023-04-04T09:02:46.523Z,96086.84
2023-04-04T09:05:15.452Z,96101.91
2023-04-04T09:07:43.640Z,96084.94
2023-04-04T09:10:11.821Z,96093.72
2023-04-04T09:12:43.004Z,96095.25
2023-04-04T09:15:10.410Z,96116.59
2023-04-04T09:17:37.525Z,96107.56
2023-04-04T09:20:24.646Z,96112.91
2023-04-04T09:22:51.687Z,96114.31
2023-04-04T09:25:18.745Z,96119.81
2023-04-04T09:27:45.793Z,96119.00
2023-04-04T09:30:12.953Z,96126.34
2023-04-04T09:32:41.434Z,96119.00
2023-04-04T09:35:09.253Z,96115.34
2023-04-04T09:37:36.476Z,96110.75
2023-04-04T09:40:04.477Z,96109.66
2023-04-04T09:42:32.713Z,96104.16
2023-04-04T09:45:00.783Z,96114.78
2023-04-04T09:47:31.431Z,96112.22
2023-04-04T09:50:03.731Z,96111.03
2023-04-04T09:52:35.818Z,96110.63
2023-04-04T09:55:03.984Z,96102.91
2023-04-04T09:57:38.003Z,96111.75
2023-04-04T10:00:09.456Z,96106.63
2023-04-04T10:02:37.148Z,96102.56
2023-04-04T10:05:06.612Z,96107.56
2023-04-04T10:07:38.029Z,96108.47
2023-04-04T10:10:05.828Z,96112.16
2023-04-04T10:12:33.097Z,96118.97
2023-04-04T10:15:00.677Z,96115.50
2023-04-04T10:17:48.003Z,96108.34
2023-04-04T10:20:18.702Z,96114.66
2023-04-04T10:22:46.239Z,96122.94
2023-04-04T10:25:14.250Z,96125.97
2023-04-04T10:27:41.510Z,96132.47
2023-04-04T10:30:09.645Z,96131.66
2023-04-04T10:32:55.416Z,96144.09
2023-04-04T10:35:24.293Z,96140.25
2023-04-04T10:37:57.620Z,96143.91
2023-04-04T10:40:27.817Z,96154.72
2023-04-04T10:42:55.324Z,96160.63
2023-04-04T10:45:22.514Z,96158.03
2023-04-04T10:47:50.566Z,96170.91
2023-04-04T10:50:20.002Z,96159.38
2023-04-04T10:52:47.503Z,96170.31
2023-04-04T10:55:15.900Z,96171.91
2023-04-04T10:57:43.989Z,96162.09
2023-04-04T11:00:12.947Z,96158.47
2023-04-04T11:02:52.436Z,96162.41
2023-04-04T11:05:42.570Z,96162.41
2023-04-04T11:08:10.932Z,96164.00
2023-04-04T11:10:39.373Z,96155.41
2023-04-04T11:13:14.797Z,96155.41
2023-04-04T11:15:45.831Z,96156.19
2023-04-04T11:18:22.154Z,96158.31
2023-04-04T11:21:02.568Z,96164.94
2023-04-04T11:23:39.336Z,96148.22
2023-04-04T11:26:07.352Z,96143.88
2023-04-04T11:28:34.484Z,96142.16
2023-04-04T11:31:17.501Z,96145.38
2023-04-04T11:33:55.279Z,96153.38
2023-04-04T11:36:37.781Z,96159.25
2023-04-04T11:39:11.581Z,96159.09
2023-04-04T11:41:48.494Z,96159.91
2023-04-04T11:44:16.366Z,96157.56
2023-04-04T11:46:43.557Z,96153.00
2023-04-04T11:49:14.223Z,96152.03
2023-04-04T11:51:41.901Z,96148.72
2023-04-04T11:54:16.152Z,96152.00
2023-04-04T11:56:44.919Z,96147.91
2023-04-04T11:59:12.620Z,96144.41
2023-04-04T12:01:40.658Z,96129.72
2023-04-04T12:04:07.972Z,96129.09
2023-04-04T12:06:37.735Z,96134.56
2023-04-04T12:09:05.472Z,96133.53
2023-04-04T12:11:36.366Z,96136.66
2023-04-04T12:14:03.457Z,96127.94
2023-04-04T12:16:30.709Z,96135.00
2023-04-04T12:19:01.178Z,96139.03
2023-04-04T12:21:31.422Z,96144.03
2023-04-04T12:23:58.603Z,96144.78
2023-04-04T12:26:29.643Z,96147.91
2023-04-04T12:28:58.182Z,96156.72
2023-04-04T12:31:26.280Z,96157.78
2023-04-04T12:33:53.418Z,96165.03
2023-04-04T12:36:20.634Z,96161.59
2023-04-04T12:39:01.419Z,96173.03
2023-04-04T12:41:28.810Z,96153.13
2023-04-04T12:44:02.917Z,96159.13
2023-04-04T12:46:39.761Z,96157.91
2023-04-04T12:49:08.237Z,96162.94
2023-04-04T12:51:36.188Z,96165.19
2023-04-04T12:54:04.623Z,96158.72
2023-04-04T12:56:31.943Z,96155.34
2023-04-04T12:59:05.553Z,96154.22
2023-04-04T13:01:33.184Z,96156.25
2023-04-04T13:04:03.038Z,96152.00
2023-04-04T13:06:31.103Z,96155.41
2023-04-04T13:08:58.718Z,96171.75
2023-04-04T13:11:26.510Z,96169.06
2023-04-04T13:14:00.546Z,96171.22
2023-04-04T13:16:31.702Z,96170.84
2023-04-04T13:18:59.189Z,96180.66
2023-04-04T13:21:26.726Z,96190.75
2023-04-04T13:23:53.787Z,96186.66
2023-04-04T13:26:21.683Z,96187.72
2023-04-04T13:28:48.781Z,96187.63
2023-04-04T13:31:16.380Z,96186.53
2023-04-04T13:33:43.532Z,96184.06
2023-04-04T13:36:10.768Z,96187.41
2023-04-04T13:38:37.874Z,96184.38
2023-04-04T13:41:05.194Z,96189.63
2023-04-04T13:43:32.293Z,96183.00
2023-04-04T13:45:59.401Z,96189.06
2023-04-04T13:48:27.113Z,96191.25
2023-04-04T13:50:55.384Z,96204.69
2023-04-04T13:53:22.734Z,96213.75
2023-04-04T13:56:13.293Z,96213.94
2023-04-04T13:58:36.899Z,96224.25
2023-04-04T14:01:04.469Z,96236.69
2023-04-04T14:03:32.008Z,96234.97
2023-04-04T14:06:03.817Z,96237.97
2023-04-04T14:08:36.984Z,96256.91
2023-04-04T14:11:04.259Z,96249.56
2023-04-04T14:13:32.625Z,96255.03
2023-04-04T14:15:59.708Z,96251.34
2023-04-04T14:18:27.163Z,96260.72
2023-04-04T14:20:54.264Z,96264.72
2023-04-04T14:23:22.087Z,96262.78
2023-04-04T14:25:50.847Z,96259.91
2023-04-04T14:28:18.072Z,96257.56
2023-04-04T14:30:45.126Z,96252.91
2023-04-04T14:33:12.383Z,96251.66
2023-04-04T14:35:39.764Z,96245.75
2023-04-04T14:38:07.059Z,96252.44
2023-04-04T14:40:34.101Z,96267.00
2023-04-04T14:43:01.130Z,96255.78
2023-04-04T14:45:32.253Z,96253.91
2023-04-04T14:47:59.398Z,96265.84
2023-04-04T14:50:26.612Z,96271.78
2023-04-04T14:52:56.355Z,96291.50
2023-04-04T14:55:23.537Z,96285.72
2023-04-04T15:00:20.990Z,96294.59
2023-04-04T15:02:48.161Z,96294.88
2023-04-04T15:05:15.479Z,96303.25
2023-04-04T15:07:42.703Z,96302.44
2023-04-04T15:10:10.170Z,96329.44
2023-04-04T15:12:37.327Z,96333.91
2023-04-04T15:15:04.640Z,96330.66
2023-04-04T15:17:31.766Z,96332.88
2023-04-04T15:19:59.841Z,96329.75
2023-04-04T15:22:26.881Z,96330.16
2023-04-04T15:24:55.969Z,96329.94
2023-04-04T15:27:23.095Z,96327.59
2023-04-04T15:29:50.188Z,96330.03
2023-04-04T15:32:17.313Z,96331.66
2023-04-04T15:34:44.385Z,96319.91
2023-04-04T15:37:12.275Z,96317.19
2023-04-04T15:39:49.675Z,96327.34
2023-04-04T15:42:19.797Z,96328.34
2023-04-04T15:44:46.914Z,96337.81
2023-04-04T15:47:14.856Z,96326.88
2023-04-04T15:49:41.962Z,96344.13
2023-04-04T15:52:09.040Z,96337.66
2023-04-04T15:54:36.129Z,96347.03
2023-04-04T15:57:03.220Z,96345.66
2023-04-04T15:59:33.432Z,96349.13
2023-04-04T16:02:01.093Z,96345.03
2023-04-04T16:04:28.122Z,96346.66
2023-04-04T16:06:55.420Z,96347.72
2023-04-04T16:09:22.535Z,96338.31
2023-04-04T16:11:49.580Z,96342.00
2023-04-04T16:14:16.736Z,96347.94
2023-04-04T16:16:43.754Z,96349.59
2023-04-04T16:19:16.868Z,96358.78
2023-04-04T16:21:44.018Z,96350.19
2023-04-04T16:24:12.674Z,96351.00
2023-04-04T16:26:39.915Z,96339.97
2023-04-04T16:29:07.052Z,96338.94
2023-04-04T16:31:34.154Z,96340.13
2023-04-04T16:34:01.252Z,96343.84
2023-04-04T16:36:28.300Z,96340.97
2023-04-04T16:38:55.581Z,96340.56
2023-04-04T16:41:22.649Z,96336.28
2023-04-04T16:43:52.630Z,96338.53
2023-04-04T16:46:20.067Z,96334.50
2023-04-04T16:48:47.292Z,96339.00
2023-04-04T16:51:14.388Z,96336.94
2023-04-04T16:53:41.558Z,96345.94
2023-04-04T16:56:08.951Z,96345.13
2023-04-04T16:58:36.189Z,96330.47
2023-04-04T17:01:03.257Z,96329.84
2023-04-04T17:03:30.805Z,96336.56
2023-04-04T17:06:00.289Z,96337.63
2023-04-04T17:08:27.877Z,96337.59
2023-04-04T17:10:54.932Z,96343.94
2023-04-04T17:13:22.363Z,96353.28
2023-04-04T17:15:49.505Z,96342.06
2023-04-04T17:18:16.582Z,96346.38
2023-04-04T17:20:43.794Z,96345.34
2023-04-04T17:23:10.949Z,96353.72
2023-04-04T17:25:38.017Z,96348.81
2023-04-04T17:28:05.504Z,96343.13
2023-04-04T17:30:32.652Z,96347.19
2023-04-04T17:32:59.753Z,96344.72
2023-04-04T17:35:27.465Z,96330.47
2023-04-04T17:37:54.647Z,96332.50
2023-04-04T17:40:21.783Z,96333.75
2023-04-04T17:42:49.123Z,96334.13
2023-04-04T17:45:16.516Z,96327.19
2023-04-04T17:47:44.678Z,96328.00
2023-04-04T17:50:12.108Z,96321.28
2023-04-04T17:52:39.200Z,96330.66
2023-04-04T17:55:07.401Z,96325.16
2023-04-04T17:57:34.436Z,96317.41
2023-04-04T18:00:01.723Z,96318.84
2023-04-04T18:02:28.835Z,96304.38
2023-04-04T18:04:57.060Z,96307.22
2023-04-04T18:07:24.199Z,96295.78
2023-04-04T18:09:51.443Z,96290.28
2023-04-04T18:12:18.591Z,96290.03
2023-04-04T18:14:45.642Z,96292.63
2023-04-04T18:17:13.158Z,96285.91
2023-04-04T18:19:41.503Z,96283.44
2023-04-04T18:22:09.375Z,96284.66
2023-04-04T18:24:36.512Z,96277.69
2023-04-04T18:27:03.609Z,96285.03
2023-04-04T18:29:32.593Z,96266.16
2023-04-04T18:32:00.764Z,96269.03
2023-04-04T18:34:27.967Z,96267.19
2023-04-04T18:36:55.939Z,96248.84
2023-04-04T18:39:23.199Z,96240.25
2023-04-04T18:41:50.957Z,96232.47
2023-04-04T18:44:18.047Z,96231.25
2023-04-04T18:46:45.317Z,96221.06
2023-04-04T18:49:12.470Z,96227.59
2023-04-04T18:51:39.610Z,96224.13
2023-04-04T18:54:07.217Z,96207.16
2023-04-04T18:56:34.290Z,96209.59
2023-04-04T18:59:01.899Z,96204.69
2023-04-04T19:01:29.046Z,96188.44
2023-04-04T19:03:56.958Z,96188.25
2023-04-04T19:06:27.494Z,96183.78
2023-04-04T19:08:58.855Z,96187.00
2023-04-04T19:11:26.325Z,96181.16
2023-04-04T19:13:53.326Z,96185.69
2023-04-04T19:16:20.453Z,96179.22
2023-04-04T19:18:47.581Z,96183.25
2023-04-04T19:21:14.667Z,96176.47
2023-04-04T19:23:42.298Z,96166.06
2023-04-04T19:26:09.401Z,96177.31
2023-04-04T19:28:36.812Z,96167.56
2023-04-04T19:31:08.553Z,96163.09
2023-04-04T19:33:37.021Z,96165.16
2023-04-04T19:36:08.114Z,96168.66
2023-04-04T19:38:36.114Z,96138.94
2023-04-04T19:41:07.335Z,96132.44
2023-04-04T19:43:34.764Z,96124.50
2023-04-04T19:46:09.455Z,96118.16
2023-04-04T19:48:43.685Z,96116.03
2023-04-04T19:51:31.967Z,96112.53
2023-04-04T19:53:59.790Z,96127.03
2023-04-04T19:56:27.742Z,96117.69
2023-04-04T19:58:55.920Z,96111.13
2023-04-04T20:01:30.399Z,96109.44
2023-04-04T20:03:58.043Z,96111.84
2023-04-04T20:06:28.902Z,96108.16
2023-04-04T20:08:57.584Z,96109.75
2023-04-04T20:11:32.133Z,96110.13
2023-04-04T20:14:00.139Z,96115.19
2023-04-04T20:16:27.633Z,96109.69
2023-04-04T20:18:54.853Z,96108.44
2023-04-04T20:21:22.909Z,96105.56
2023-04-04T20:23:53.900Z,96124.44
2023-04-04T20:26:36.286Z,96123.75
2023-04-04T20:29:07.771Z,96119.63
2023-04-04T20:31:45.412Z,96109.28
2023-04-04T20:34:32.893Z,96114.72
2023-04-04T20:37:01.596Z,96112.44
2023-04-04T20:39:41.031Z,96113.44
2023-04-04T20:42:18.304Z,96118.22
2023-04-04T20:44:46.027Z,96123.75
2023-04-04T20:47:31.920Z,96102.13
2023-04-04T20:49:58.987Z,96106.28
2023-04-04T20:52:26.169Z,96110.28
2023-04-04T20:54:53.215Z,96113.59
2023-04-04T20:57:23.602Z,96123.38
2023-04-04T20:59:50.813Z,96107.69
2023-04-04T21:02:19.940Z,96094.84
2023-04-04T21:04:49.570Z,96101.81
2023-04-04T21:07:32.081Z,96108.53
2023-04-04T21:10:00.323Z,96096.91
2023-04-04T21:12:27.642Z,96077.25
2023-04-04T21:14:54.696Z,96062.41
2023-04-04T21:17:22.043Z,96055.13
2023-04-04T21:19:50.154Z,96049.59
2023-04-04T21:22:18.081Z,96052.06
2023-04-04T21:24:45.300Z,96042.72
2023-04-04T21:27:32.171Z,96041.59
2023-04-04T21:29:59.166Z,96027.31
2023-04-04T21:32:26.540Z,96030.63
2023-04-04T21:34:53.620Z,96032.66
2023-04-04T21:37:21.412Z,96028.81
2023-04-04T21:39:49.982Z,96015.97
2023-04-04T21:42:18.292Z,96011.31
2023-04-04T21:44:45.409Z,96008.28
2023-04-04T21:47:13.850Z,96004.22
2023-04-04T21:49:41.662Z,96019.53
2023-04-04T21:52:08.780Z,96020.72
2023-04-04T21:54:35.865Z,96021.72
2023-04-04T21:57:02.945Z,96017.22
2023-04-04T21:59:30.252Z,96017.69
2023-04-04T22:01:57.321Z,96020.72
2023-04-04T22:04:24.484Z,96018.44
2023-04-04T22:06:51.548Z,96015.44
2023-04-04T22:09:19.222Z,96016.63
2023-04-04T22:11:46.309Z,96016.22
2023-04-04T22:14:17.338Z,96027.00
2023-04-04T22:16:44.795Z,96030.28
2023-04-04T22:19:15.439Z,96031.66
2023-04-04T22:21:47.523Z,96029.66
2023-04-04T22:24:15.571Z,96034.34
2023-04-04T22:26:42.669Z,96025.63
2023-04-04T22:29:09.966Z,96028.88
2023-04-04T22:31:37.879Z,96015.25
2023-04-04T22:34:06.253Z,96018.09
2023-04-04T22:36:34.559Z,96023.81
2023-04-04T22:39:02.056Z,96014.00
2023-04-04T22:41:29.271Z,96023.38
2023-04-04T22:43:57.141Z,96022.56
2023-04-04T22:46:25.590Z,96018.91
2023-04-04T22:49:04.613Z,96024.19
2023-04-04T22:51:43.940Z,96018.72
2023-04-04T22:54:14.452Z,96023.78
2023-04-04T22:56:41.889Z,96024.19
2023-04-04T22:59:09.130Z,96015.44
2023-04-04T23:01:36.362Z,96012.16
2023-04-04T23:04:03.536Z,96019.25
2023-04-04T23:06:31.428Z,96029.66
2023-04-04T23:08:59.027Z,96026.81
2023-04-04T23:11:27.283Z,96023.16
2023-04-04T23:13:57.042Z,96006.47
2023-04-04T23:16:26.262Z,96010.34
2023-04-04T23:18:53.722Z,96004.44
2023-04-04T23:21:22.068Z,96006.69
2023-04-04T23:23:49.478Z,96004.25
2023-04-04T23:26:16.624Z,95994.94
2023-04-04T23:28:43.670Z,95998.59
2023-04-04T23:31:10.792Z,96001.22
2023-04-04T23:33:38.065Z,96000.03
2023-04-04T23:36:05.399Z,96007.13
2023-04-04T23:38:32.540Z,96007.31
2023-04-04T23:40:59.609Z,96003.44
2023-04-04T23:43:26.745Z,95996.50
2023-04-04T23:45:53.886Z,96001.78
2023-04-04T23:48:21.389Z,95998.56
2023-04-04T23:50:50.097Z,95988.38
2023-04-04T23:53:17.220Z,95998.97
2023-04-04T23:55:44.283Z,95992.25
2023-04-04T23:58:11.322Z,95997.34
